Time;durP1;ratioP1;P1;durP2;ratioP2;P2;SDS_P1;SDS_P2;PMS_P1;PMS_P2;Temp;Humidity;BMP_temperature;BMP_pressure;BME280_temperature;BME280_humidity;BME280_pressure;Samples;Min_cycle;Max_cycle;Signal;HPM_P1;HPM_P2
2022/04/05 00:01:41;;;;;;;35.13;20.80;;;10.30;99.90;;;;;;5051627;28;20385;-57
2022/04/05 00:04:06;;;;;;;39.78;21.30;;;10.40;99.90;;;;;;5051510;28;20040;-58
2022/04/05 00:06:32;;;;;;;41.42;22.35;;;10.40;99.90;;;;;;5051598;28;20111;-58
2022/04/05 00:08:58;;;;;;;34.88;20.48;;;10.40;99.90;;;;;;5051438;28;20033;-58
2022/04/05 00:11:23;;;;;;;36.42;21.23;;;10.40;99.90;;;;;;5051235;28;20130;-58
2022/04/05 00:13:49;;;;;;;39.83;21.70;;;10.40;99.90;;;;;;5066958;28;20061;-59
2022/04/05 00:16:15;;;;;;;41.50;20.83;;;10.50;99.90;;;;;;5051843;28;20021;-59
2022/04/05 00:18:41;;;;;;;36.38;21.05;;;10.40;99.90;;;;;;5067214;28;20032;-59
2022/04/05 00:21:06;;;;;;;41.42;21.10;;;10.40;99.90;;;;;;5051570;28;20035;-59
2022/04/05 00:23:32;;;;;;;35.33;22.17;;;10.40;99.90;;;;;;5051375;28;20021;-59
2022/04/05 00:25:57;;;;;;;36.00;22.08;;;10.50;99.90;;;;;;5051584;28;20025;-59
2022/04/05 00:28:23;;;;;;;35.22;20.52;;;10.50;99.90;;;;;;5050919;28;20033;-60
2022/04/05 00:30:49;;;;;;;43.17;22.27;;;10.40;99.90;;;;;;5050831;28;20382;-60
2022/04/05 00:33:17;;;;;;;36.25;20.50;;;10.50;99.90;;;;;;5051197;28;20100;-60
2022/04/05 00:35:43;;;;;;;38.15;22.02;;;10.40;99.90;;;;;;5051121;28;20107;-60
2022/04/05 00:38:09;;;;;;;39.78;21.75;;;10.40;99.90;;;;;;5051305;28;20105;-60
2022/04/05 00:40:36;;;;;;;41.10;23.45;;;10.50;99.90;;;;;;5050577;28;20521;-59
2022/04/05 00:43:05;;;;;;;41.58;24.35;;;10.50;99.90;;;;;;5051313;28;20371;-59
2022/04/05 00:45:34;;;;;;;42.03;25.30;;;10.50;99.90;;;;;;5052188;28;20103;-59
2022/04/05 00:48:02;;;;;;;40.46;24.72;;;10.50;99.90;;;;;;5038317;28;1080539;-59
2022/04/05 00:50:31;;;;;;;44.10;24.02;;;10.50;99.90;;;;;;5051700;28;20502;-59
2022/04/05 00:52:57;;;;;;;43.33;23.65;;;10.50;99.90;;;;;;5051870;28;20029;-58
2022/04/05 00:55:24;;;;;;;50.65;25.27;;;10.50;99.90;;;;;;5051190;28;20070;-59
2022/04/05 00:57:51;;;;;;;41.67;25.17;;;10.50;99.90;;;;;;5050477;28;20096;-58
2022/04/05 01:00:17;;;;;;;40.47;22.85;;;10.50;99.90;;;;;;5052830;28;20079;-59
2022/04/05 01:02:46;;;;;;;43.58;23.85;;;10.50;99.90;;;;;;5051802;28;20506;-58
2022/04/05 01:05:15;;;;;;;43.50;22.90;;;10.50;99.90;;;;;;5051213;28;20387;-58
2022/04/05 01:07:44;;;;;;;34.60;19.42;;;10.60;99.90;;;;;;5052210;28;20108;-57
2022/04/05 01:10:11;;;;;;;40.25;24.33;;;10.60;99.90;;;;;;5051885;28;20053;-57
2022/04/05 01:12:36;;;;;;;45.30;23.17;;;10.60;99.90;;;;;;5051454;28;20108;-58
2022/04/05 01:15:02;;;;;;;42.03;23.95;;;10.50;99.90;;;;;;5051254;28;20545;-57
2022/04/05 01:17:29;;;;;;;48.00;24.02;;;10.50;99.90;;;;;;5051547;28;20095;-57
2022/04/05 01:19:55;;;;;;;44.30;21.83;;;10.60;99.90;;;;;;5051441;28;20048;-57
2022/04/05 01:22:20;;;;;;;37.10;22.15;;;10.60;99.90;;;;;;5051259;28;20063;-57
2022/04/05 01:24:46;;;;;;;39.28;21.88;;;10.60;99.90;;;;;;5050981;28;20035;-57
2022/04/05 01:27:19;;;;;;;35.53;17.92;;;10.60;99.90;;;;;;5051148;28;20534;-57
2022/04/05 01:29:46;;;;;;;37.45;20.48;;;10.60;99.90;;;;;;5052235;28;20009;-57
2022/04/05 01:32:11;;;;;;;34.10;16.80;;;10.60;99.90;;;;;;5052181;28;20021;-57
2022/04/05 01:34:38;;;;;;;37.33;21.38;;;10.60;99.90;;;;;;5051252;28;20036;-57
2022/04/05 01:37:06;;;;;;;36.45;21.10;;;10.60;99.90;;;;;;5051672;28;20048;-58
2022/04/05 01:39:35;;;;;;;40.55;20.77;;;10.60;99.90;;;;;;5052250;28;20321;-58
2022/04/05 01:42:04;;;;;;;38.85;20.65;;;10.60;99.90;;;;;;5051784;28;20040;-57
2022/04/05 01:44:31;;;;;;;33.17;17.77;;;10.60;99.90;;;;;;5050529;28;20017;-58
2022/04/05 01:46:57;;;;;;;32.75;18.85;;;10.70;99.90;;;;;;5050498;28;20102;-58
2022/04/05 01:49:23;;;;;;;39.20;20.85;;;10.70;99.90;;;;;;5050673;28;20510;-58
2022/04/05 01:51:49;;;;;;;37.45;20.15;;;10.70;99.90;;;;;;5050939;28;20082;-58
2022/04/05 01:54:17;;;;;;;34.22;20.00;;;10.60;99.90;;;;;;5065929;28;20028;-58
2022/04/05 01:56:51;;;;;;;30.02;17.05;;;10.70;99.90;;;;;;5050548;28;20494;-62
2022/04/05 01:59:19;;;;;;;35.85;19.27;;;10.70;99.90;;;;;;5049090;28;20394;-65
2022/04/05 02:01:45;;;;;;;41.42;19.17;;;10.60;99.90;;;;;;5050609;28;20017;-67
2022/04/05 02:04:12;;;;;;;36.47;19.30;;;10.60;99.90;;;;;;5050423;28;20481;-68
2022/04/05 02:06:38;;;;;;;36.65;20.33;;;10.60;99.90;;;;;;5050510;28;20025;-67
2022/04/05 02:09:04;;;;;;;34.30;20.67;;;10.60;99.90;;;;;;5051195;28;20025;-68
2022/04/05 02:11:31;;;;;;;38.03;19.55;;;10.60;99.90;;;;;;5051083;28;20520;-68
2022/04/05 02:13:57;;;;;;;41.05;20.65;;;10.50;99.90;;;;;;5050951;28;20037;-68
2022/04/05 02:16:22;;;;;;;39.17;21.10;;;10.50;99.90;;;;;;5050493;28;20398;-68
2022/04/05 02:18:48;;;;;;;34.20;19.00;;;10.60;99.90;;;;;;5051005;28;20061;-68
2022/04/05 02:21:13;;;;;;;40.63;21.48;;;10.60;99.90;;;;;;5051236;28;20048;-68
2022/04/05 02:23:39;;;;;;;33.97;19.65;;;10.50;99.90;;;;;;5066496;28;20075;-67
2022/04/05 02:26:05;;;;;;;44.08;22.08;;;10.50;99.90;;;;;;5066311;28;20063;-67
2022/04/05 02:28:30;;;;;;;40.17;20.35;;;10.50;99.90;;;;;;5050348;28;20025;-68
2022/04/05 02:30:56;;;;;;;33.28;17.10;;;10.50;99.90;;;;;;5049912;28;20036;-67
2022/04/05 02:33:22;;;;;;;38.28;20.23;;;10.50;99.90;;;;;;5050155;28;20469;-67
2022/04/05 02:35:48;;;;;;;40.42;21.50;;;10.50;99.90;;;;;;5065523;28;20064;-66
2022/04/05 02:38:14;;;;;;;34.25;19.13;;;10.50;99.90;;;;;;5050218;28;20028;-66
2022/04/05 02:40:40;;;;;;;42.47;22.38;;;10.50;99.90;;;;;;5049978;28;20071;-64
2022/04/05 02:43:06;;;;;;;31.80;20.42;;;10.50;99.90;;;;;;5050718;28;20033;-65
2022/04/05 02:45:32;;;;;;;37.35;21.27;;;10.50;99.90;;;;;;5050165;28;20577;-65
2022/04/05 02:47:58;;;;;;;40.40;22.30;;;10.50;99.90;;;;;;5050342;28;20029;-65
2022/04/05 02:50:24;;;;;;;31.58;19.40;;;10.50;99.90;;;;;;5050066;28;20434;-66
2022/04/05 02:52:50;;;;;;;36.60;20.85;;;10.50;99.90;;;;;;5050191;28;20045;-65
2022/04/05 02:55:17;;;;;;;33.63;20.80;;;10.50;99.90;;;;;;5049957;28;20032;-65
2022/04/05 02:57:44;;;;;;;38.10;19.80;;;10.50;99.90;;;;;;5050240;28;20486;-65
2022/04/05 03:00:11;;;;;;;37.42;22.15;;;10.50;99.90;;;;;;5049993;28;20017;-64
2022/04/05 03:02:38;;;;;;;37.42;22.10;;;10.50;99.90;;;;;;5049797;28;20021;-64
2022/04/05 03:05:06;;;;;;;38.80;21.63;;;10.50;99.90;;;;;;5049746;28;20027;-64
2022/04/05 03:07:32;;;;;;;39.65;20.85;;;10.50;99.90;;;;;;5049651;28;20489;-64
2022/04/05 03:09:57;;;;;;;41.65;21.17;;;10.50;99.90;;;;;;5050539;28;20309;-64
2022/04/05 03:12:23;;;;;;;40.47;20.70;;;10.50;99.90;;;;;;5050101;28;20021;-64
2022/04/05 03:14:48;;;;;;;43.92;21.23;;;10.50;99.90;;;;;;5050517;28;20056;-63
2022/04/05 03:17:14;;;;;;;33.65;19.13;;;10.50;99.90;;;;;;5049623;28;20037;-63
2022/04/05 03:19:39;;;;;;;35.33;20.10;;;10.50;99.90;;;;;;5050104;28;20021;-63
2022/04/05 03:22:11;;;;;;;34.55;20.70;;;10.50;99.90;;;;;;5052151;28;20074;-63
2022/04/05 03:24:37;;;;;;;38.37;19.50;;;10.50;99.90;;;;;;5054008;28;20111;-63
2022/04/05 03:27:04;;;;;;;41.58;20.90;;;10.50;99.90;;;;;;5053344;28;20052;-61
2022/04/05 03:29:30;;;;;;;34.97;19.63;;;10.60;99.90;;;;;;5053545;28;20025;-61
2022/04/05 03:31:56;;;;;;;38.00;21.80;;;10.50;99.90;;;;;;5054309;28;20158;-61
2022/04/05 03:34:22;;;;;;;36.78;19.83;;;10.60;99.90;;;;;;5054391;28;20100;-61
2022/04/05 03:36:47;;;;;;;35.60;19.45;;;10.50;99.90;;;;;;5054236;28;20055;-61
2022/04/05 03:39:14;;;;;;;32.38;19.75;;;10.50;99.90;;;;;;5054334;28;20076;-61
2022/04/05 03:41:41;;;;;;;34.47;20.42;;;10.50;99.90;;;;;;5054502;28;20044;-61
2022/04/05 03:44:06;;;;;;;35.25;20.13;;;10.50;99.90;;;;;;5053194;28;20024;-62
2022/04/05 03:46:33;;;;;;;29.95;19.35;;;10.50;99.90;;;;;;5053676;28;20025;-62
2022/04/05 03:48:59;;;;;;;37.42;19.52;;;10.50;99.90;;;;;;5053723;28;20131;-62
2022/04/05 03:51:26;;;;;;;31.13;18.60;;;10.50;99.90;;;;;;5069253;28;20041;-62
2022/04/05 03:53:51;;;;;;;34.25;18.42;;;10.50;99.90;;;;;;5052826;28;20171;-62
2022/04/05 03:56:19;;;;;;;30.50;19.00;;;10.50;99.90;;;;;;5052184;28;20120;-62
2022/04/05 03:58:44;;;;;;;32.78;19.52;;;10.50;99.90;;;;;;5053610;28;20106;-62
2022/04/05 04:01:10;;;;;;;36.58;19.48;;;10.50;99.90;;;;;;5052870;28;20482;-62
2022/04/05 04:03:35;;;;;;;37.22;19.05;;;10.50;99.90;;;;;;5052551;28;20032;-62
2022/04/05 04:06:01;;;;;;;36.22;18.55;;;10.50;99.90;;;;;;5051473;28;20025;-62
2022/04/05 04:08:27;;;;;;;35.35;18.92;;;10.50;99.90;;;;;;5052735;28;20381;-62
2022/04/05 04:10:53;;;;;;;27.05;17.90;;;10.50;99.90;;;;;;5052457;28;20760;-61
2022/04/05 04:13:19;;;;;;;30.10;17.25;;;10.50;99.90;;;;;;5052717;28;20060;-61
2022/04/05 04:15:45;;;;;;;33.05;18.35;;;10.60;99.90;;;;;;5052564;28;20039;-60
2022/04/05 04:18:10;;;;;;;33.65;20.08;;;10.50;99.90;;;;;;5053100;28;20071;-60
2022/04/05 04:20:38;;;;;;;33.95;19.38;;;10.60;99.90;;;;;;5067708;28;20475;-61
2022/04/05 04:23:05;;;;;;;31.90;18.58;;;10.50;99.90;;;;;;5067665;28;20231;-61
2022/04/05 04:25:31;;;;;;;37.15;19.45;;;10.50;99.90;;;;;;5052557;28;20490;-60
2022/04/05 04:27:57;;;;;;;32.83;18.85;;;10.50;99.90;;;;;;5052694;28;20025;-61
2022/04/05 04:30:23;;;;;;;33.28;19.05;;;10.50;99.90;;;;;;5052421;28;20084;-60
2022/04/05 04:32:49;;;;;;;29.33;18.83;;;10.50;99.90;;;;;;5051080;28;20052;-60
2022/04/05 04:35:15;;;;;;;28.17;16.52;;;10.50;99.90;;;;;;5052232;28;20467;-60
2022/04/05 04:37:41;;;;;;;33.28;19.63;;;10.50;99.90;;;;;;5052108;28;20063;-60
2022/04/05 04:40:08;;;;;;;30.35;18.55;;;10.50;99.90;;;;;;5052541;28;20021;-60
2022/04/05 04:42:34;;;;;;;27.02;17.33;;;10.50;99.90;;;;;;5051602;28;20440;-60
2022/04/05 04:45:00;;;;;;;28.00;17.90;;;10.50;99.90;;;;;;5051689;28;20029;-60
2022/04/05 04:47:26;;;;;;;30.13;17.75;;;10.50;99.90;;;;;;5051874;28;20043;-60
2022/04/05 04:49:52;;;;;;;32.90;19.17;;;10.50;99.90;;;;;;5051999;28;20136;-60
2022/04/05 04:52:17;;;;;;;32.38;18.50;;;10.50;99.90;;;;;;5052239;28;20025;-59
2022/04/05 04:54:43;;;;;;;28.80;18.50;;;10.50;99.90;;;;;;5051691;28;20036;-59
2022/04/05 04:57:09;;;;;;;26.60;17.77;;;10.50;99.90;;;;;;5051845;28;20029;-60
2022/04/05 04:59:34;;;;;;;31.35;17.60;;;10.50;99.90;;;;;;5051438;28;20025;-60
2022/04/05 05:02:00;;;;;;;27.55;18.27;;;10.50;99.90;;;;;;5051565;28;20032;-59
2022/04/05 05:04:26;;;;;;;23.45;17.17;;;10.50;99.90;;;;;;5066842;28;20025;-59
2022/04/05 05:06:53;;;;;;;31.55;17.35;;;10.50;99.90;;;;;;5051225;28;20065;-59
2022/04/05 05:09:18;;;;;;;27.73;17.77;;;10.50;99.90;;;;;;5050459;28;20405;-60
2022/04/05 05:11:44;;;;;;;28.27;17.25;;;10.50;99.90;;;;;;5051106;28;20031;-60
2022/04/05 05:14:10;;;;;;;24.48;16.88;;;10.50;99.90;;;;;;5051092;28;20029;-60
2022/04/05 05:16:36;;;;;;;25.08;16.75;;;10.50;99.90;;;;;;5051531;28;20509;-59
2022/04/05 05:19:02;;;;;;;30.15;17.65;;;10.50;99.90;;;;;;5051559;28;20033;-59
2022/04/05 05:21:28;;;;;;;26.13;17.73;;;10.50;99.90;;;;;;5051316;28;20036;-60
2022/04/05 05:23:54;;;;;;;25.17;17.80;;;10.50;99.90;;;;;;5050972;28;20021;-59
2022/04/05 05:26:20;;;;;;;27.20;17.85;;;10.50;99.90;;;;;;5066536;28;20024;-59
2022/04/05 05:28:45;;;;;;;21.77;15.05;;;10.40;99.90;;;;;;5049867;28;20071;-59
2022/04/05 05:31:11;;;;;;;27.60;18.70;;;10.50;99.90;;;;;;5051037;28;20032;-59
2022/04/05 05:33:37;;;;;;;26.23;17.67;;;10.40;99.90;;;;;;5051138;28;20029;-59
2022/04/05 05:36:03;;;;;;;26.08;17.13;;;10.40;99.90;;;;;;5051539;28;20529;-59
2022/04/05 05:38:28;;;;;;;25.90;16.92;;;10.50;99.90;;;;;;5050980;28;20108;-59
2022/04/05 05:40:54;;;;;;;24.77;17.90;;;10.50;99.90;;;;;;5050669;28;20021;-59
2022/04/05 05:43:22;;;;;;;29.05;18.20;;;10.50;99.90;;;;;;5051733;28;20420;-59
2022/04/05 05:45:47;;;;;;;24.02;16.50;;;10.50;99.90;;;;;;5051101;28;20029;-59
2022/04/05 05:48:13;;;;;;;24.80;16.77;;;10.50;99.90;;;;;;5051214;28;20156;-59
2022/04/05 05:50:38;;;;;;;23.67;17.08;;;10.50;99.90;;;;;;5049554;28;20547;-59
2022/04/05 05:53:04;;;;;;;27.65;17.95;;;10.60;99.90;;;;;;5050742;28;20040;-59
2022/04/05 05:55:30;;;;;;;24.50;16.55;;;10.50;99.90;;;;;;5066046;28;20112;-59
2022/04/05 05:57:56;;;;;;;22.35;15.13;;;10.60;99.90;;;;;;5051608;28;20073;-59
2022/04/05 06:00:22;;;;;;;25.30;16.23;;;10.60;99.90;;;;;;5052916;28;20029;-59
2022/04/05 06:03:01;;;;;;;23.48;17.27;;;10.60;99.90;;;;;;5066058;28;20049;-60
2022/04/05 06:05:27;;;;;;;25.13;17.48;;;10.60;99.90;;;;;;5051005;28;20040;-59
2022/04/05 06:07:54;;;;;;;26.40;16.83;;;10.60;99.90;;;;;;5051698;28;20181;-59
2022/04/05 06:10:20;;;;;;;25.50;17.08;;;10.60;99.90;;;;;;5051810;28;20041;-59
2022/04/05 06:12:48;;;;;;;23.55;17.42;;;10.70;99.90;;;;;;5065954;28;20027;-59
2022/04/05 06:15:15;;;;;;;28.00;18.20;;;10.70;99.90;;;;;;5066297;28;20048;-59
2022/04/05 06:17:43;;;;;;;29.02;18.23;;;10.70;99.90;;;;;;5050557;28;20036;-60
2022/04/05 06:20:10;;;;;;;28.00;17.90;;;10.70;99.90;;;;;;5050837;28;20051;-60
2022/04/05 06:22:44;;;;;;;23.50;16.98;;;10.70;99.90;;;;;;5050687;28;20502;-59
2022/04/05 06:25:10;;;;;;;26.33;17.42;;;10.70;99.90;;;;;;5051356;28;20028;-59
2022/04/05 06:27:37;;;;;;;29.92;18.85;;;10.70;99.90;;;;;;5050920;28;20037;-59
2022/04/05 06:30:04;;;;;;;25.85;17.83;;;10.70;99.90;;;;;;5050912;28;20036;-59
2022/04/05 06:32:30;;;;;;;26.27;18.20;;;10.70;99.90;;;;;;5050546;28;20036;-59
2022/04/05 06:34:55;;;;;;;28.35;19.10;;;10.80;99.90;;;;;;5050815;28;20033;-59
2022/04/05 06:37:21;;;;;;;23.92;18.58;;;10.80;99.90;;;;;;5050312;28;20029;-59
2022/04/05 06:39:48;;;;;;;21.95;18.17;;;10.80;99.90;;;;;;5050884;28;20033;-60
2022/04/05 06:42:13;;;;;;;24.80;18.08;;;10.80;99.90;;;;;;5050900;28;20013;-60
2022/04/05 06:44:39;;;;;;;25.92;17.70;;;10.80;99.90;;;;;;5050139;28;20032;-60
2022/04/05 06:47:06;;;;;;;29.52;18.25;;;10.90;99.90;;;;;;5049939;28;20029;-60
2022/04/05 06:49:32;;;;;;;27.55;18.02;;;10.90;99.90;;;;;;5050025;28;20387;-60
2022/04/05 06:51:58;;;;;;;23.73;18.40;;;11.00;99.90;;;;;;5050109;28;20033;-60
2022/04/05 06:54:24;;;;;;;24.88;17.33;;;11.00;99.90;;;;;;5051011;28;20478;-60
2022/04/05 06:56:50;;;;;;;21.17;17.25;;;11.00;99.90;;;;;;5051805;28;20029;-60
2022/04/05 06:59:15;;;;;;;24.58;17.75;;;11.00;99.90;;;;;;5053548;28;20025;-60
2022/04/05 07:01:41;;;;;;;24.17;16.33;;;11.00;99.90;;;;;;5052303;28;20033;-60
2022/04/05 07:04:07;;;;;;;24.67;17.00;;;11.00;99.90;;;;;;5052898;28;21121;-60
2022/04/05 07:06:32;;;;;;;22.13;16.67;;;11.00;99.90;;;;;;5060063;28;20505;-60
2022/04/05 07:08:58;;;;;;;23.95;18.85;;;11.00;99.90;;;;;;5050307;28;20037;-60
2022/04/05 07:11:24;;;;;;;23.27;18.08;;;10.90;99.90;;;;;;5055385;28;20065;-60
2022/04/05 07:13:51;;;;;;;24.88;17.80;;;11.00;99.90;;;;;;5056534;28;20397;-60
2022/04/05 07:16:18;;;;;;;25.15;18.10;;;11.00;99.90;;;;;;5064083;28;20025;-61
2022/04/05 07:18:43;;;;;;;21.75;16.95;;;11.00;99.90;;;;;;5062775;28;20032;-60
2022/04/05 07:21:09;;;;;;;26.50;17.23;;;11.10;99.90;;;;;;5056035;28;20029;-60
2022/04/05 07:23:36;;;;;;;23.42;16.95;;;11.10;99.90;;;;;;5052538;28;20095;-60
2022/04/05 07:26:02;;;;;;;18.73;16.50;;;11.10;99.90;;;;;;5059777;28;20059;-60
2022/04/05 07:28:28;;;;;;;21.33;15.98;;;11.20;99.90;;;;;;5057573;28;20039;-60
2022/04/05 07:30:54;;;;;;;22.25;17.27;;;11.20;99.90;;;;;;5048993;28;20107;-60
2022/04/05 07:33:19;;;;;;;22.63;17.30;;;11.20;99.90;;;;;;5045165;28;20486;-60
2022/04/05 07:35:45;;;;;;;22.65;16.80;;;11.20;99.90;;;;;;5045739;28;20107;-61
2022/04/05 07:38:12;;;;;;;22.73;16.88;;;11.10;99.90;;;;;;5049735;28;20082;-60
2022/04/05 07:40:47;;;;;;;18.33;15.85;;;11.10;99.90;;;;;;5048436;28;20494;-60
2022/04/05 07:43:18;;;;;;;22.42;16.58;;;11.10;99.90;;;;;;5048308;28;20450;-60
2022/04/05 07:45:44;;;;;;;21.45;15.00;;;11.10;99.90;;;;;;5047939;28;20036;-60
2022/04/05 07:48:11;;;;;;;19.52;15.70;;;11.20;99.90;;;;;;5046669;28;20029;-60
2022/04/05 07:50:36;;;;;;;20.83;16.45;;;11.20;99.90;;;;;;5050166;28;20053;-60
2022/04/05 07:53:02;;;;;;;20.58;14.40;;;11.20;99.90;;;;;;5049731;28;20394;-61
2022/04/05 07:55:28;;;;;;;20.23;14.75;;;11.20;99.90;;;;;;5048848;28;20032;-60
2022/04/05 07:57:54;;;;;;;19.77;13.10;;;11.20;99.90;;;;;;5047586;28;20040;-60
2022/04/05 08:00:20;;;;;;;17.63;13.75;;;11.30;99.90;;;;;;5051837;28;20023;-60
2022/04/05 08:02:46;;;;;;;18.05;14.77;;;11.20;99.90;;;;;;5050967;28;20214;-60
2022/04/05 08:05:12;;;;;;;23.75;14.85;;;11.30;99.90;;;;;;5048186;28;20147;-59
2022/04/05 08:07:38;;;;;;;21.02;13.80;;;11.30;99.90;;;;;;5045034;28;20206;-60
2022/04/05 08:10:04;;;;;;;18.45;14.52;;;11.40;99.90;;;;;;5042606;28;20485;-59
2022/04/05 08:12:42;;;;;;;18.77;13.80;;;11.50;99.90;;;;;;5041768;28;20263;-59
2022/04/05 08:15:09;;;;;;;17.30;14.15;;;11.60;99.90;;;;;;5044390;28;20130;-59
2022/04/05 08:17:35;;;;;;;16.27;13.55;;;11.60;99.90;;;;;;5042495;28;20021;-60
2022/04/05 08:20:01;;;;;;;14.18;12.32;;;11.60;99.90;;;;;;5042204;28;20052;-58
2022/04/05 08:22:26;;;;;;;16.40;11.98;;;11.60;99.90;;;;;;5046496;28;20021;-59
2022/04/05 08:24:52;;;;;;;18.05;13.15;;;11.70;99.90;;;;;;5045207;28;20202;-59
2022/04/05 08:27:18;;;;;;;16.00;12.82;;;11.70;99.90;;;;;;5045484;28;20025;-58
2022/04/05 08:29:43;;;;;;;14.98;11.25;;;11.90;99.90;;;;;;5048239;28;20919;-59
2022/04/05 08:32:09;;;;;;;15.70;11.93;;;11.90;99.90;;;;;;5046807;28;20080;-59
2022/04/05 08:34:38;;;;;;;18.65;13.13;;;11.90;99.90;;;;;;5046933;28;20030;-59
2022/04/05 08:37:04;;;;;;;17.33;12.05;;;11.80;99.90;;;;;;5045096;28;20478;-61
2022/04/05 08:39:30;;;;;;;12.02;10.30;;;11.90;99.90;;;;;;5046910;28;20033;-59
2022/04/05 08:41:59;;;;;;;16.00;11.95;;;11.90;99.90;;;;;;5047461;28;20045;-59
2022/04/05 08:44:25;;;;;;;12.20;10.65;;;11.90;99.90;;;;;;5046615;28;20040;-59
2022/04/05 08:46:52;;;;;;;12.40;11.10;;;12.00;99.90;;;;;;5042914;28;20110;-60
2022/04/05 08:49:20;;;;;;;13.93;10.60;;;12.00;99.90;;;;;;5042820;28;20518;-60
2022/04/05 08:51:45;;;;;;;11.52;10.05;;;12.00;99.90;;;;;;5045989;28;20033;-60
2022/04/05 08:54:11;;;;;;;14.70;10.90;;;12.00;99.90;;;;;;5050464;28;20421;-61
2022/04/05 08:56:37;;;;;;;12.38;10.70;;;11.90;99.90;;;;;;5070512;28;20031;-60
2022/04/05 08:59:03;;;;;;;11.90;10.00;;;12.00;99.90;;;;;;5054720;28;20029;-61
2022/04/05 09:01:29;;;;;;;11.40;9.00;;;11.90;99.90;;;;;;5048253;28;20091;-60
2022/04/05 09:03:58;;;;;;;14.18;9.55;;;11.90;99.90;;;;;;5051641;28;20013;-61
2022/04/05 09:06:28;;;;;;;13.85;10.45;;;11.80;99.90;;;;;;5057714;28;20075;-60
2022/04/05 09:08:58;;;;;;;11.88;9.60;;;11.70;99.90;;;;;;5053251;28;20463;-60
2022/04/05 09:11:28;;;;;;;11.73;10.27;;;11.70;99.90;;;;;;5043296;28;20075;-60
2022/04/05 09:13:59;;;;;;;13.07;9.82;;;11.80;99.90;;;;;;5059095;28;20547;-60
2022/04/05 09:16:31;;;;;;;13.27;9.77;;;11.90;99.90;;;;;;5067466;28;20514;-59
2022/04/05 09:18:58;;;;;;;11.23;9.90;;;11.90;99.90;;;;;;5050894;28;20493;-60
2022/04/05 09:21:24;;;;;;;13.23;10.18;;;12.00;99.90;;;;;;5054986;28;20040;-60
2022/04/05 09:23:52;;;;;;;11.20;9.00;;;12.10;99.90;;;;;;5055223;28;20033;-60
2022/04/05 09:26:19;;;;;;;9.93;8.50;;;12.20;99.90;;;;;;5050738;28;20025;-60
2022/04/05 09:28:50;;;;;;;11.32;8.23;;;12.30;99.90;;;;;;5066751;28;20533;-60
2022/04/05 09:31:21;;;;;;;13.55;10.00;;;12.30;99.90;;;;;;5051102;28;20029;-59
2022/04/05 09:34:08;;;;;;;12.13;9.85;;;12.40;99.90;;;;;;5049914;28;20029;-59
2022/04/05 09:36:40;;;;;;;11.45;9.43;;;12.40;99.90;;;;;;5050714;28;20551;-59
2022/04/05 09:39:26;;;;;;;12.40;9.85;;;12.40;99.90;;;;;;5050786;28;20510;-60
2022/04/05 09:42:13;;;;;;;10.10;9.10;;;12.50;99.90;;;;;;5065705;28;20490;-59
2022/04/05 09:44:43;;;;;;;11.75;9.30;;;12.30;99.90;;;;;;5049901;28;20028;-60
2022/04/05 09:47:17;;;;;;;12.20;10.30;;;12.20;99.90;;;;;;5051101;28;20025;-59
2022/04/05 09:49:45;;;;;;;10.48;9.35;;;12.10;99.90;;;;;;5065999;28;20048;-59
2022/04/05 09:52:27;;;;;;;11.68;10.00;;;12.10;99.90;;;;;;5050603;28;20025;-59
2022/04/05 09:54:54;;;;;;;12.52;9.77;;;12.10;99.90;;;;;;5048850;28;20021;-61
2022/04/05 09:57:31;;;;;;;11.82;10.27;;;12.20;99.90;;;;;;5050214;28;20094;-60
2022/04/05 10:00:12;;;;;;;10.40;9.30;;;12.20;99.90;;;;;;5049125;28;20142;-60
2022/04/05 10:03:03;;;;;;;9.90;8.73;;;12.30;99.90;;;;;;5049403;28;20025;-60
2022/04/05 10:05:30;;;;;;;10.27;8.63;;;12.30;99.90;;;;;;5049930;28;20107;-60
2022/04/05 10:07:56;;;;;;;11.20;10.00;;;12.50;99.90;;;;;;5051576;28;20033;-60
2022/04/05 10:10:23;;;;;;;10.27;9.27;;;12.60;99.90;;;;;;5064608;28;20163;-60
2022/04/05 10:12:49;;;;;;;9.68;8.68;;;12.80;99.90;;;;;;5048670;28;20425;-60
2022/04/05 10:15:15;;;;;;;10.15;9.13;;;12.70;99.90;;;;;;5050732;28;20061;-60
2022/04/05 10:17:44;;;;;;;9.40;8.60;;;12.70;99.90;;;;;;5050073;28;20025;-59
2022/04/05 10:20:11;;;;;;;9.77;8.88;;;12.80;99.90;;;;;;5049342;28;20045;-59
2022/04/05 10:22:39;;;;;;;9.13;8.20;;;12.90;99.90;;;;;;5042224;28;20364;-60
2022/04/05 10:25:07;;;;;;;10.38;9.38;;;13.00;99.90;;;;;;5051829;28;20086;-59
2022/04/05 10:27:32;;;;;;;9.52;8.63;;;12.90;99.90;;;;;;5050316;28;20071;-59
2022/04/05 10:30:15;;;;;;;10.82;9.70;;;12.80;99.90;;;;;;5051868;28;20029;-60
2022/04/05 10:33:09;;;;;;;10.73;9.63;;;13.00;99.90;;;;;;5055457;28;20029;-59
2022/04/05 10:36:00;;;;;;;10.93;9.27;;;12.60;99.90;;;;;;5054131;28;20494;-60
2022/04/05 10:38:27;;;;;;;10.63;9.63;;;12.70;99.90;;;;;;5057020;28;20104;-61
2022/04/05 10:41:20;;;;;;;10.85;9.75;;;12.70;99.90;;;;;;5053890;28;20394;-61
2022/04/05 10:44:27;;;;;;;10.50;9.38;;;12.70;99.90;;;;;;5053870;28;20025;-62
2022/04/05 10:46:57;;;;;;;9.88;8.88;;;12.80;99.90;;;;;;5051898;28;20482;-61
2022/04/05 10:49:43;;;;;;;10.35;8.55;;;12.90;99.90;;;;;;5069399;28;20387;-61
2022/04/05 10:52:26;;;;;;;9.20;8.18;;;12.90;99.90;;;;;;5040352;28;20029;-61
2022/04/05 10:55:11;;;;;;;11.25;8.25;;;13.00;99.90;;;;;;5036788;28;20309;-61
2022/04/05 10:57:37;;;;;;;9.05;8.25;;;12.80;99.90;;;;;;5034269;28;20124;-61
2022/04/05 11:00:21;;;;;;;9.55;8.68;;;12.70;99.90;;;;;;5048237;28;20032;-61
2022/04/05 11:03:00;;;;;;;9.00;8.07;;;12.90;99.90;;;;;;5051085;28;20029;-62
2022/04/05 11:05:35;;;;;;;8.75;7.85;;;13.00;99.90;;;;;;5049687;28;20029;-61
2022/04/05 11:08:03;;;;;;;8.10;7.28;;;13.10;99.90;;;;;;5054258;28;20493;-61
2022/04/05 11:10:38;;;;;;;8.18;7.30;;;13.50;99.90;;;;;;5054982;28;20033;-61
2022/04/05 11:13:17;;;;;;;7.65;7.05;;;13.70;99.90;;;;;;5054069;28;20029;-62
2022/04/05 11:15:50;;;;;;;5.70;5.20;;;14.20;99.90;;;;;;5053134;28;20041;-61
2022/04/05 11:18:25;;;;;;;5.80;5.32;;;14.60;99.90;;;;;;5053462;28;20497;-61
2022/04/05 11:20:53;;;;;;;6.13;5.53;;;14.70;99.90;;;;;;5052996;28;20115;-60
2022/04/05 11:23:36;;;;;;;6.00;5.50;;;14.40;99.90;;;;;;5068630;28;20078;-60
2022/04/05 11:26:24;;;;;;;7.78;7.10;;;14.00;99.90;;;;;;5034344;28;20413;-60
2022/04/05 11:28:50;;;;;;;7.32;6.63;;;13.60;99.90;;;;;;5048083;28;20525;-60
2022/04/05 11:31:40;;;;;;;7.78;7.07;;;13.30;99.90;;;;;;5053589;28;20035;-60
2022/04/05 11:34:33;;;;;;;8.10;7.28;;;13.20;99.90;;;;;;5068074;28;20435;-60
2022/04/05 11:36:59;;;;;;;8.13;7.45;;;13.40;99.90;;;;;;5048268;28;20033;-60
2022/04/05 11:39:24;;;;;;;8.00;7.30;;;13.40;99.90;;;;;;5068983;28;20429;-60
2022/04/05 11:42:00;;;;;;;7.53;6.50;;;13.30;99.90;;;;;;5052153;28;20031;-60
2022/04/05 11:44:26;;;;;;;6.93;6.40;;;13.30;99.90;;;;;;5053047;28;20036;-60
2022/04/05 11:46:58;;;;;;;6.95;6.22;;;13.70;99.90;;;;;;5042756;28;20034;-61
2022/04/05 11:49:24;;;;;;;6.75;6.15;;;14.00;99.90;;;;;;5054440;28;20135;-61
2022/04/05 11:51:50;;;;;;;6.07;5.57;;;14.10;99.90;;;;;;5061716;28;20060;-60
2022/04/05 11:54:21;;;;;;;6.53;5.90;;;13.90;99.90;;;;;;5054229;28;20044;-60
2022/04/05 11:56:47;;;;;;;6.60;5.60;;;13.70;99.90;;;;;;5053734;28;20048;-60
2022/04/05 11:59:18;;;;;;;6.93;6.40;;;13.70;99.90;;;;;;5053861;28;20415;-60
2022/04/05 12:01:49;;;;;;;6.35;5.75;;;13.80;99.90;;;;;;5052661;28;20025;-60
2022/04/05 12:04:25;;;;;;;6.03;5.47;;;13.80;99.90;;;;;;5058919;28;20025;-60
2022/04/05 12:07:01;;;;;;;6.28;5.78;;;13.60;99.90;;;;;;5052157;28;20036;-59
2022/04/05 12:09:27;;;;;;;6.20;5.60;;;13.50;99.90;;;;;;5053827;28;20048;-59
2022/04/05 12:11:53;;;;;;;7.63;5.22;;;13.50;99.90;;;;;;5052409;28;20032;-60
2022/04/05 12:14:24;;;;;;;5.10;4.70;;;13.90;99.90;;;;;;5052774;28;20051;-59
2022/04/05 12:16:55;;;;;;;4.63;4.22;;;14.30;99.90;;;;;;5042489;28;20154;-59
2022/04/05 12:19:24;;;;;;;5.20;4.72;;;14.20;99.90;;;;;;5053032;28;20025;-59
2022/04/05 12:21:55;;;;;;;4.55;4.00;;;14.20;99.90;;;;;;5069175;28;20021;-59
2022/04/05 12:24:21;;;;;;;4.88;4.10;;;14.00;99.90;;;;;;5052971;28;20028;-59
2022/04/05 12:26:47;;;;;;;5.63;5.10;;;13.90;99.90;;;;;;5052599;28;20029;-58
2022/04/05 12:29:13;;;;;;;4.78;4.38;;;13.70;99.90;;;;;;5053443;28;20028;-58
2022/04/05 12:31:39;;;;;;;5.97;4.20;;;13.60;99.90;;;;;;5053299;28;20056;-58
2022/04/05 12:34:11;;;;;;;4.78;4.38;;;13.60;99.90;;;;;;5053281;28;20031;-59
2022/04/05 12:36:41;;;;;;;;;;;13.70;99.90;;;;;;5053188;28;20434;-59